Time;durP1;ratioP1;P1;durP2;ratioP2;P2;SDS_P1;SDS_P2;PMS_P1;PMS_P2;Temp;Humidity;BMP_temperature;BMP_pressure;BME280_temperature;BME280_humidity;BME280_pressure;Samples;Min_cycle;Max_cycle;Signal;HPM_P1;HPM_P2
2021/09/19 00:01:08;;;;;;;3.30;3.00;;;;;;;17.84;93.14;100735.87;1625843;87;21542;-78
2021/09/19 00:03:35;;;;;;;3.72;3.10;;;;;;;17.88;93.02;100733.31;1595297;89;20936;-77
2021/09/19 00:06:01;;;;;;;2.80;2.45;;;;;;;17.90;92.84;100732.19;1578921;90;21018;-77
2021/09/19 00:08:28;;;;;;;3.77;2.60;;;;;;;17.90;92.59;100730.07;1575406;90;21054;-78
2021/09/19 00:10:56;;;;;;;2.37;1.95;;;;;;;17.91;92.51;100731.70;1577025;90;20999;-77
2021/09/19 00:13:24;;;;;;;2.50;2.30;;;;;;;17.93;92.60;100725.84;1579776;90;20982;-77
2021/09/19 00:15:52;;;;;;;3.25;2.50;;;;;;;17.95;92.54;100731.28;1572233;90;20983;-78
2021/09/19 00:18:20;;;;;;;2.58;2.37;;;;;;;17.97;91.97;100736.36;1580349;90;21076;-78
2021/09/19 00:20:48;;;;;;;2.22;2.02;;;;;;;18.00;91.48;100732.64;1581437;90;21006;-78
2021/09/19 00:23:16;;;;;;;2.92;2.40;;;;;;;18.00;90.86;100733.45;1575787;90;21193;-77
2021/09/19 00:25:43;;;;;;;5.53;2.08;;;;;;;18.04;90.64;100730.05;1581111;90;20979;-77
2021/09/19 00:28:10;;;;;;;2.33;2.10;;;;;;;18.07;90.00;100733.69;1581374;90;21566;-78
2021/09/19 00:30:38;;;;;;;3.10;2.45;;;;;;;18.11;90.03;100730.62;1581380;90;21043;-77
2021/09/19 00:33:06;;;;;;;2.27;2.08;;;;;;;18.16;89.51;100736.73;1578657;90;21074;-77
2021/09/19 00:35:33;;;;;;;2.60;2.37;;;;;;;18.17;88.66;100733.14;1579350;90;21173;-80
2021/09/19 00:37:59;;;;;;;2.50;2.30;;;;;;;18.17;88.44;100735.29;1631870;87;21517;-78
2021/09/19 00:40:27;;;;;;;3.15;2.55;;;;;;;18.20;88.13;100742.04;1630341;88;21071;-78
2021/09/19 00:42:53;;;;;;;3.08;2.70;;;;;;;18.20;88.13;100740.24;1632095;88;20965;-78
2021/09/19 00:45:24;;;;;;;3.45;2.65;;;;;;;18.15;88.25;100737.25;1627795;87;21014;-77
2021/09/19 00:47:52;;;;;;;3.40;3.00;;;;;;;18.10;88.38;100732.91;1584813;88;21178;-78
2021/09/19 00:50:22;;;;;;;5.95;2.98;;;;;;;18.06;88.54;100735.99;1614988;88;21009;-80
2021/09/19 00:52:48;;;;;;;4.40;2.72;;;;;;;18.01;88.53;100740.84;1592424;89;21617;-81
2021/09/19 00:55:16;;;;;;;4.20;3.00;;;;;;;17.92;88.69;100731.57;1581503;90;21055;-84
2021/09/19 00:57:46;;;;;;;5.90;3.20;;;;;;;17.87;88.66;100731.65;1579602;90;21035;-84
2021/09/19 01:00:18;;;;;;;3.27;2.90;;;;;;;17.77;88.77;100735.63;1575864;90;20980;-85
2021/09/19 01:02:46;;;;;;;6.40;3.75;;;;;;;17.66;88.91;100733.21;1582231;89;21070;-84
2021/09/19 01:05:16;;;;;;;3.70;3.37;;;;;;;17.56;88.82;100731.11;1580744;90;20943;-83
2021/09/19 01:07:44;;;;;;;4.10;2.92;;;;;;;17.49;88.67;100735.23;1579565;90;20920;-85
2021/09/19 01:10:13;;;;;;;4.40;3.00;;;;;;;17.44;88.40;100738.31;1628534;87;21013;-81
2021/09/19 01:12:41;;;;;;;5.15;3.50;;;;;;;17.43;88.02;100745.83;1630519;87;20968;-81
2021/09/19 01:15:11;;;;;;;4.50;3.25;;;;;;;17.46;87.63;100746.86;1629986;88;21053;-81
2021/09/19 01:17:40;;;;;;;4.40;2.95;;;;;;;17.52;87.18;100745.96;1630451;87;21022;-86
2021/09/19 01:20:13;;;;;;;3.62;3.25;;;;;;;17.56;86.83;100742.91;1629337;87;21005;-79
2021/09/19 01:22:45;;;;;;;6.42;2.83;;;;;;;17.61;86.61;100749.06;1634599;87;20909;-86
2021/09/19 01:25:15;;;;;;;3.37;2.25;;;;;;;17.64;86.44;100750.08;1631863;87;20877;-83
2021/09/19 01:27:45;;;;;;;3.85;2.87;;;;;;;17.66;86.38;100750.27;1592661;88;20980;-82
2021/09/19 01:30:12;;;;;;;4.35;3.33;;;;;;;17.69;86.35;100742.11;1575625;89;20965;-83
2021/09/19 01:32:40;;;;;;;5.17;4.40;;;;;;;17.70;86.35;100742.94;1588048;89;21014;-82
2021/09/19 01:35:09;;;;;;;15.75;9.98;;;;;;;17.69;86.41;100742.11;1612059;89;21017;-86
2021/09/19 01:37:36;;;;;;;20.48;16.07;;;;;;;17.68;86.57;100744.38;1594932;90;21179;-81
2021/09/19 01:40:06;;;;;;;26.55;16.80;;;;;;;17.71;86.79;100747.23;1586324;90;21046;-84
2021/09/19 01:42:35;;;;;;;19.67;11.70;;;;;;;17.74;86.87;100750.36;1564964;88;21466;-84
2021/09/19 01:45:03;;;;;;;12.90;8.48;;;;;;;17.76;86.78;100753.69;1576110;90;21092;-81
2021/09/19 01:47:29;;;;;;;9.30;7.33;;;;;;;17.79;86.61;100756.02;1632601;88;20993;-83
2021/09/19 01:49:58;;;;;;;7.65;6.17;;;;;;;17.80;86.33;100763.41;1632480;87;20976;-82
2021/09/19 01:52:29;;;;;;;6.20;5.33;;;;;;;17.79;86.14;100755.19;1634870;87;21016;-78
2021/09/19 01:54:59;;;;;;;7.53;6.67;;;;;;;17.80;85.79;100762.94;1631197;87;21582;-79
2021/09/19 01:57:25;;;;;;;10.85;9.75;;;;;;;17.78;85.63;100766.66;1594435;90;21480;-84
2021/09/19 01:59:54;;;;;;;19.02;13.55;;;;;;;17.76;85.61;100772.55;1581318;90;20924;-79
2021/09/19 02:02:21;;;;;;;17.05;12.75;;;;;;;17.73;85.53;100761.02;1580615;90;21169;-85
2021/09/19 02:04:51;;;;;;;10.60;7.45;;;;;;;17.70;85.47;100762.14;1581290;90;20999;-80
2021/09/19 02:07:19;;;;;;;7.12;5.72;;;;;;;17.69;85.41;100758.34;1581408;90;21035;-84
2021/09/19 02:09:47;;;;;;;11.10;7.30;;;;;;;17.68;85.45;100764.55;1581423;90;20975;-82
2021/09/19 02:12:14;;;;;;;14.68;11.48;;;;;;;17.64;85.52;100762.72;1575294;90;21502;-77
2021/09/19 02:14:42;;;;;;;12.47;9.70;;;;;;;17.61;85.53;100760.87;1575742;90;21216;-82
2021/09/19 02:17:11;;;;;;;6.22;5.62;;;;;;;17.59;85.64;100752.30;1579917;90;20990;-79
2021/09/19 02:19:40;;;;;;;4.65;4.08;;;;;;;17.56;85.74;100756.04;1573831;90;21518;-76
2021/09/19 02:22:11;;;;;;;5.72;3.37;;;;;;;17.54;85.83;100750.09;1599052;89;21522;-77
2021/09/19 02:24:38;;;;;;;5.22;3.08;;;;;;;17.52;85.86;100750.69;1596390;87;21095;-79
2021/09/19 02:27:05;;;;;;;3.85;3.05;;;;;;;17.50;85.87;100752.65;1599445;88;21103;-79
2021/09/19 02:29:33;;;;;;;6.22;3.12;;;;;;;17.48;85.94;100751.14;1596882;88;20999;-79
2021/09/19 02:32:01;;;;;;;3.75;3.30;;;;;;;17.44;85.97;100755.36;1594752;88;20943;-79
2021/09/19 02:34:28;;;;;;;4.08;3.30;;;;;;;17.43;85.92;100754.18;1588333;89;21496;-79
2021/09/19 02:36:56;;;;;;;4.05;3.30;;;;;;;17.42;85.74;100748.10;1599219;88;21009;-80
2021/09/19 02:39:23;;;;;;;4.42;2.95;;;;;;;17.45;85.61;100747.02;1578864;90;21201;-82
2021/09/19 02:41:50;;;;;;;3.80;3.12;;;;;;;17.46;85.41;100752.10;1632278;88;21558;-78
2021/09/19 02:44:18;;;;;;;3.52;3.22;;;;;;;17.49;85.12;100753.61;1632268;87;21015;-77
2021/09/19 02:46:46;;;;;;;8.73;6.30;;;;;;;17.53;84.72;100760.23;1632891;87;21073;-78
2021/09/19 02:49:14;;;;;;;32.15;18.87;;;;;;;17.57;84.29;100760.33;1588837;89;21045;-81
2021/09/19 02:51:43;;;;;;;31.77;16.87;;;;;;;17.61;83.81;100759.56;1570574;90;20973;-80
2021/09/19 02:54:09;;;;;;;18.95;10.32;;;;;;;17.65;83.28;100761.73;1582575;89;21059;-78
2021/09/19 02:56:37;;;;;;;15.00;8.90;;;;;;;17.69;82.85;100761.80;1611380;88;20969;-79
2021/09/19 02:59:05;;;;;;;46.37;29.07;;;;;;;17.72;82.54;100771.17;1594549;88;20909;-79
2021/09/19 03:01:33;;;;;;;68.10;40.30;;;;;;;17.73;82.41;100764.96;1640253;86;21499;-79
2021/09/19 03:04:02;;;;;;;43.33;25.15;;;;;;;17.70;82.46;100763.94;1630446;87;20960;-80
2021/09/19 03:06:28;;;;;;;36.73;20.00;;;;;;;17.69;82.54;100766.21;1629937;88;21024;-81
2021/09/19 03:08:56;;;;;;;29.77;16.87;;;;;;;17.67;82.57;100768.16;1623708;88;21092;-79
2021/09/19 03:11:23;;;;;;;42.17;22.27;;;;;;;17.67;82.50;100771.63;1632279;87;21028;-79
2021/09/19 03:13:53;;;;;;;30.82;18.57;;;;;;;17.70;82.55;100771.81;1632400;88;21507;-79
2021/09/19 03:16:20;;;;;;;34.30;20.35;;;;;;;17.73;82.38;100771.52;1627551;87;21841;-79
2021/09/19 03:18:49;;;;;;;25.02;16.85;;;;;;;17.74;82.22;100775.30;1630112;87;21029;-79
2021/09/19 03:21:15;;;;;;;21.20;13.72;;;;;;;17.78;82.08;100773.21;1630770;88;20972;-79
2021/09/19 03:23:42;;;;;;;19.17;13.40;;;;;;;17.79;81.62;100769.63;1627276;88;21021;-78
2021/09/19 03:26:08;;;;;;;22.48;14.90;;;;;;;17.81;81.38;100775.06;1631557;88;20957;-78
2021/09/19 03:28:35;;;;;;;23.95;16.73;;;;;;;17.85;81.30;100776.44;1632903;88;21111;-79
2021/09/19 03:31:01;;;;;;;25.77;17.87;;;;;;;17.87;81.15;100778.91;1633116;88;20869;-79
2021/09/19 03:33:29;;;;;;;26.27;17.77;;;;;;;17.84;80.79;100776.57;1629829;88;20960;-79
2021/09/19 03:35:56;;;;;;;22.82;15.35;;;;;;;17.80;80.67;100773.92;1632907;87;21630;-80
2021/09/19 03:38:24;;;;;;;21.45;12.35;;;;;;;17.76;80.72;100775.17;1629560;87;20970;-79
2021/09/19 03:40:50;;;;;;;24.18;14.30;;;;;;;17.72;80.44;100774.62;1633557;87;21163;-79
2021/09/19 03:43:18;;;;;;;27.82;13.85;;;;;;;17.70;80.29;100775.75;1633796;87;21582;-77
2021/09/19 03:45:44;;;;;;;16.40;9.48;;;;;;;17.67;79.94;100770.79;1657170;86;21080;-78
2021/09/19 03:48:12;;;;;;;21.27;11.28;;;;;;;17.66;79.33;100775.69;1659742;86;47168;-79
2021/09/19 03:50:39;;;;;;;20.37;11.12;;;;;;;17.62;79.14;100774.31;1661108;86;20992;-78
2021/09/19 03:53:06;;;;;;;22.37;12.55;;;;;;;17.57;79.18;100769.99;1653319;86;21902;-79
2021/09/19 03:55:32;;;;;;;23.47;10.98;;;;;;;17.52;79.72;100768.27;1651940;86;20974;-79
2021/09/19 03:57:59;;;;;;;22.60;11.38;;;;;;;17.48;80.37;100774.28;1660713;86;20972;-78
2021/09/19 04:00:28;;;;;;;15.28;9.68;;;;;;;17.44;80.63;100768.97;1659830;86;21075;-78
2021/09/19 04:02:54;;;;;;;16.52;9.43;;;;;;;17.39;81.19;100773.79;1652057;86;21028;-78
2021/09/19 04:05:21;;;;;;;13.13;9.10;;;;;;;17.30;81.51;100770.70;1658019;86;21165;-78
2021/09/19 04:07:47;;;;;;;10.63;6.80;;;;;;;17.20;81.94;100770.73;1661092;86;20930;-78
2021/09/19 04:10:14;;;;;;;7.90;5.50;;;;;;;17.13;81.98;100774.91;1661002;86;20953;-78
2021/09/19 04:12:40;;;;;;;9.73;6.45;;;;;;;17.07;82.19;100775.95;1659464;86;20902;-78
2021/09/19 04:15:09;;;;;;;11.88;6.53;;;;;;;17.03;82.62;100776.70;1661176;85;20996;-77
2021/09/19 04:17:37;;;;;;;10.20;6.67;;;;;;;16.98;82.73;100784.62;1659425;86;21001;-78
2021/09/19 04:20:06;;;;;;;9.40;6.35;;;;;;;16.93;82.37;100781.96;1659066;86;20949;-78
2021/09/19 04:22:35;;;;;;;7.58;5.60;;;;;;;16.91;82.14;100785.69;1657263;86;20882;-78
2021/09/19 04:25:01;;;;;;;11.20;6.00;;;;;;;16.88;82.06;100795.11;1658619;86;21653;-78
2021/09/19 04:27:28;;;;;;;10.28;5.85;;;;;;;16.85;82.36;100788.36;1659841;86;21008;-78
2021/09/19 04:29:54;;;;;;;10.40;6.80;;;;;;;16.82;82.79;100793.88;1659689;86;21208;-78
2021/09/19 04:32:21;;;;;;;12.00;7.53;;;;;;;16.80;83.13;100790.58;1659368;86;20966;-78
2021/09/19 04:34:48;;;;;;;9.45;6.75;;;;;;;16.77;83.39;100794.79;1660050;86;20977;-78
2021/09/19 04:37:16;;;;;;;9.15;6.95;;;;;;;16.74;83.42;100793.75;1661435;85;21012;-78
2021/09/19 04:39:44;;;;;;;11.75;7.30;;;;;;;16.74;83.71;100792.92;1659740;86;20944;-78
2021/09/19 04:42:11;;;;;;;13.65;7.40;;;;;;;16.76;83.87;100800.98;1657537;86;21900;-78
2021/09/19 04:44:38;;;;;;;14.47;7.85;;;;;;;16.77;83.78;100797.41;1659810;86;20925;-77
2021/09/19 04:47:04;;;;;;;13.30;8.75;;;;;;;16.79;84.03;100796.78;1654585;86;20914;-79
2021/09/19 04:49:32;;;;;;;13.18;9.53;;;;;;;16.79;84.17;100799.87;1659876;86;20941;-78
2021/09/19 04:51:59;;;;;;;12.30;7.65;;;;;;;16.79;83.68;100806.43;1660031;86;21079;-78
2021/09/19 04:54:26;;;;;;;16.65;8.73;;;;;;;16.81;83.28;100805.83;1659763;86;21255;-78
2021/09/19 04:56:54;;;;;;;15.00;8.15;;;;;;;16.84;83.42;100802.45;1659745;86;20937;-78
2021/09/19 04:59:22;;;;;;;9.40;7.30;;;;;;;16.89;81.92;100806.78;1654370;86;20913;-78
2021/09/19 05:01:48;;;;;;;9.00;7.08;;;;;;;16.92;81.92;100808.30;1659750;86;21044;-79
2021/09/19 05:04:15;;;;;;;6.97;5.53;;;;;;;16.93;81.12;100812.59;1660326;86;20945;-78
2021/09/19 05:06:41;;;;;;;6.72;5.60;;;;;;;16.94;79.92;100809.01;1659269;86;21907;-78
2021/09/19 05:09:09;;;;;;;9.75;6.37;;;;;;;16.94;80.23;100810.32;1655129;86;21531;-78
2021/09/19 05:11:37;;;;;;;8.25;5.15;;;;;;;16.96;79.21;100808.85;1656019;86;21032;-79
2021/09/19 05:14:03;;;;;;;8.48;6.55;;;;;;;16.98;79.75;100818.70;1657666;86;20925;-80
2021/09/19 05:16:32;;;;;;;8.98;5.67;;;;;;;16.98;78.79;100814.77;1659876;86;21441;-78
2021/09/19 05:19:00;;;;;;;6.62;5.30;;;;;;;16.99;78.85;100814.65;1659361;86;21017;-78
2021/09/19 05:21:28;;;;;;;5.85;5.08;;;;;;;17.01;78.36;100818.45;1658763;86;21048;-79
2021/09/19 05:23:56;;;;;;;6.05;4.87;;;;;;;16.99;78.02;100810.72;1659830;86;21634;-78
2021/09/19 05:26:25;;;;;;;5.17;4.50;;;;;;;17.02;77.76;100814.38;1660026;86;20977;-79
2021/09/19 05:28:52;;;;;;;5.80;4.47;;;;;;;17.04;78.01;100813.73;1655601;86;20902;-79
2021/09/19 05:31:18;;;;;;;22.22;14.75;;;;;;;17.08;78.34;100808.57;1659758;84;21172;-79
2021/09/19 05:33:48;;;;;;;10.18;8.45;;;;;;;17.14;78.19;100809.32;1659008;86;21883;-79
2021/09/19 05:36:15;;;;;;;13.05;11.48;;;;;;;17.20;78.10;100808.76;1656940;85;21199;-81
2021/09/19 05:38:42;;;;;;;26.10;21.80;;;;;;;17.28;77.75;100810.69;1659534;86;21029;-77
2021/09/19 05:41:09;;;;;;;26.77;21.52;;;;;;;17.36;77.38;100810.33;1656189;86;21554;-78
2021/09/19 05:43:35;;;;;;;21.87;19.48;;;;;;;17.45;77.65;100813.41;1657749;86;21186;-78
2021/09/19 05:46:03;;;;;;;18.40;15.75;;;;;;;17.58;77.78;100805.77;1653240;86;20913;-77
2021/09/19 05:48:30;;;;;;;12.95;10.03;;;;;;;17.69;77.27;100808.20;1655818;86;21027;-81
2021/09/19 05:50:58;;;;;;;7.45;5.67;;;;;;;17.81;76.78;100803.95;1659124;86;21482;-81
2021/09/19 05:53:26;;;;;;;7.30;5.37;;;;;;;17.91;76.13;100803.91;1660757;86;21116;-82
2021/09/19 05:55:55;;;;;;;5.67;4.70;;;;;;;17.96;76.64;100800.38;1658624;86;21126;-86
2021/09/19 05:58:23;;;;;;;4.58;4.17;;;;;;;18.03;76.34;100798.00;1660184;85;20941;-81
2021/09/19 06:00:51;;;;;;;5.10;3.72;;;;;;;18.08;76.38;100793.13;1657428;86;21467;-78
2021/09/19 06:03:18;;;;;;;7.45;3.92;;;;;;;18.15;75.88;100795.52;1658377;85;20980;-79
2021/09/19 06:05:45;;;;;;;4.00;3.70;;;;;;;18.22;75.71;100798.70;1659004;86;20945;-86
2021/09/19 06:08:13;;;;;;;6.08;4.08;;;;;;;18.25;76.11;100797.09;1656551;86;20882;-88
2021/09/19 06:10:39;;;;;;;5.92;4.00;;;;;;;18.28;76.29;100800.73;1660654;86;21029;-84
2021/09/19 06:13:07;;;;;;;5.30;3.72;;;;;;;18.35;75.51;100807.06;1656844;86;21547;-85
2021/09/19 06:15:35;;;;;;;4.87;3.60;;;;;;;18.47;75.55;100811.64;1657166;86;21084;-85
2021/09/19 06:18:03;;;;;;;7.00;3.58;;;;;;;18.54;74.89;100814.54;1661656;86;20969;-77
2021/09/19 06:20:30;;;;;;;3.85;3.55;;;;;;;18.57;73.43;100810.30;1658567;86;21952;-80
2021/09/19 06:22:58;;;;;;;4.55;3.67;;;;;;;18.57;73.15;100811.09;1660718;86;21071;-78
2021/09/19 06:25:24;;;;;;;5.78;5.05;;;;;;;18.59;72.74;100813.59;1657957;86;20969;-79
2021/09/19 06:27:53;;;;;;;6.08;4.72;;;;;;;18.62;72.79;100812.81;1656033;86;20976;-82
2021/09/19 06:30:20;;;;;;;20.72;18.52;;;;;;;18.66;72.92;100814.17;1656388;86;21063;-81
2021/09/19 06:32:48;;;;;;;22.90;19.87;;;;;;;18.70;71.52;100810.25;1656021;85;21237;-84
2021/09/19 06:35:17;;;;;;;12.37;11.00;;;;;;;18.81;71.13;100815.78;1653485;86;21027;-87
2021/09/19 06:37:43;;;;;;;28.20;21.70;;;;;;;18.90;70.59;100817.50;1659531;86;21008;-78
2021/09/19 06:40:12;;;;;;;16.45;14.00;;;;;;;18.98;69.60;100816.28;1659789;86;20953;-77
2021/09/19 06:42:40;;;;;;;11.12;7.65;;;;;;;19.03;69.00;100815.32;1655210;86;21025;-81
2021/09/19 06:45:09;;;;;;;10.23;8.45;;;;;;;19.06;69.49;100816.81;1659286;86;21499;-77
2021/09/19 06:47:40;;;;;;;6.95;5.33;;;;;;;19.11;69.50;100821.15;1659518;86;21614;-76
2021/09/19 06:50:09;;;;;;;8.80;5.90;;;;;;;19.15;68.69;100819.36;1656085;86;21060;-76
2021/09/19 06:52:36;;;;;;;10.50;7.30;;;;;;;19.19;68.78;100819.40;1657177;86;21628;-81
2021/09/19 06:55:04;;;;;;;6.67;4.12;;;;;;;19.26;68.54;100820.94;1653596;86;21089;-84
2021/09/19 06:57:30;;;;;;;7.22;4.65;;;;;;;19.34;67.71;100819.66;1656471;86;21222;-85
2021/09/19 06:59:57;;;;;;;26.15;19.77;;;;;;;19.37;66.04;100816.23;1655994;86;21044;-73
2021/09/19 07:02:23;;;;;;;9.95;8.10;;;;;;;19.42;65.46;100815.81;1659723;86;21499;-76
2021/09/19 07:04:51;;;;;;;6.87;5.53;;;;;;;19.52;65.74;100806.02;1659809;86;21069;-80
2021/09/19 07:07:18;;;;;;;6.45;5.03;;;;;;;19.63;64.43;100814.13;1659452;86;21017;-83
2021/09/19 07:09:45;;;;;;;19.90;17.55;;;;;;;19.68;64.85;100810.07;1659397;86;21117;-79
2021/09/19 07:12:11;;;;;;;11.30;10.03;;;;;;;19.74;64.68;100813.88;1656646;86;20905;-81
2021/09/19 07:14:39;;;;;;;15.28;10.60;;;;;;;19.76;63.80;100814.53;1657940;86;20969;-77
2021/09/19 07:17:08;;;;;;;11.60;10.23;;;;;;;19.75;64.41;100807.64;1659384;86;20941;-84
2021/09/19 07:19:35;;;;;;;8.53;7.50;;;;;;;19.75;65.20;100804.48;1655468;86;20882;-75
2021/09/19 07:22:04;;;;;;;6.67;5.67;;;;;;;19.81;65.84;100807.84;1659664;84;20965;-75
2021/09/19 07:24:32;;;;;;;3.72;3.30;;;;;;;19.89;65.69;100799.13;1660307;86;20950;-79
2021/09/19 07:26:58;;;;;;;3.10;2.83;;;;;;;19.96;64.82;100795.72;1657752;86;21068;-78
2021/09/19 07:29:25;;;;;;;5.60;2.90;;;;;;;20.03;63.29;100791.96;1656668;86;20890;-78
2021/09/19 07:31:53;;;;;;;3.45;2.67;;;;;;;20.04;63.35;100797.05;1657119;86;21562;-76
2021/09/19 07:34:21;;;;;;;3.25;2.95;;;;;;;20.06;62.50;100801.70;1659374;86;22039;-84
2021/09/19 07:36:48;;;;;;;4.28;2.75;;;;;;;20.08;63.04;100798.88;1659670;85;21020;-79
2021/09/19 07:39:16;;;;;;;3.30;2.70;;;;;;;20.14;63.30;100799.56;1658538;86;21578;-80
2021/09/19 07:41:43;;;;;;;4.10;2.60;;;;;;;20.21;61.82;100803.22;1659784;86;20985;-78
2021/09/19 07:44:10;;;;;;;3.77;2.87;;;;;;;20.22;62.52;100794.34;1662925;86;21012;-75
2021/09/19 07:46:37;;;;;;;3.17;2.87;;;;;;;20.26;61.48;100807.53;1657915;86;21562;-79
2021/09/19 07:49:06;;;;;;;3.05;2.75;;;;;;;20.25;61.89;100802.41;1658344;85;20881;-83
2021/09/19 07:51:33;;;;;;;3.42;3.20;;;;;;;20.29;61.74;100797.19;1655114;86;21160;-80
2021/09/19 07:54:01;;;;;;;3.45;3.12;;;;;;;20.31;61.57;100789.94;1650479;87;20966;-78
2021/09/19 07:56:28;;;;;;;3.10;2.80;;;;;;;20.41;61.41;100792.77;1658515;86;20989;-75
2021/09/19 07:58:54;;;;;;;3.15;2.85;;;;;;;20.51;60.22;100789.50;1642855;86;21148;-74
2021/09/19 08:01:21;;;;;;;5.05;4.50;;;;;;;20.61;59.53;100795.12;1658753;86;20949;-82
2021/09/19 08:03:47;;;;;;;3.72;3.40;;;;;;;20.68;57.03;100794.80;1650805;86;21586;-77
2021/09/19 08:06:15;;;;;;;18.37;16.42;;;;;;;20.76;57.52;100790.84;1659678;86;21072;-76
2021/09/19 08:08:42;;;;;;;12.58;8.25;;;;;;;20.84;56.75;100788.20;1658179;86;20917;-77
2021/09/19 08:11:09;;;;;;;7.00;5.78;;;;;;;20.85;56.63;100776.18;1659744;86;21117;-80
2021/09/19 08:13:36;;;;;;;4.70;3.20;;;;;;;20.94;57.01;100782.27;1659928;86;21349;-81
2021/09/19 08:16:04;;;;;;;7.60;5.95;;;;;;;20.99;54.58;100778.66;1655761;86;21009;-77
2021/09/19 08:18:30;;;;;;;10.85;6.85;;;;;;;21.00;53.89;100772.37;1657769;86;21009;-80
2021/09/19 08:20:57;;;;;;;7.80;5.95;;;;;;;21.01;54.58;100767.44;1659537;86;21626;-79
2021/09/19 08:23:23;;;;;;;6.87;4.25;;;;;;;21.10;54.79;100769.11;1660013;86;21194;-78
2021/09/19 08:25:51;;;;;;;4.65;3.62;;;;;;;21.18;52.36;100753.28;1660971;86;21004;-81
2021/09/19 08:28:18;;;;;;;4.10;3.77;;;;;;;21.24;52.52;100761.84;1657637;86;21551;-77
2021/09/19 08:30:46;;;;;;;2.40;2.20;;;;;;;21.35;52.29;100757.52;1657398;86;21127;-75
2021/09/19 08:33:13;;;;;;;6.00;5.30;;;;;;;21.45;49.46;100761.30;1656096;86;21017;-77
2021/09/19 08:35:40;;;;;;;2.90;2.70;;;;;;;21.49;50.14;100758.66;1657639;86;22021;-82
2021/09/19 08:38:07;;;;;;;2.40;1.98;;;;;;;21.56;48.76;100753.85;1659613;86;21082;-77
2021/09/19 08:40:34;;;;;;;2.47;1.70;;;;;;;21.68;45.85;100759.58;1659635;86;21496;-80
2021/09/19 08:43:06;;;;;;;7.28;5.50;;;;;;;21.69;46.08;100752.48;1659688;86;21037;-81
2021/09/19 08:45:32;;;;;;;11.78;7.42;;;;;;;21.75;45.69;100751.80;1658359;86;21024;-82
2021/09/19 08:47:59;;;;;;;5.10;4.53;;;;;;;21.80;46.58;100753.42;1660645;84;21217;-76
2021/09/19 08:50:28;;;;;;;3.98;2.55;;;;;;;21.96;46.35;100752.06;1658662;86;21488;-77
2021/09/19 08:52:55;;;;;;;3.22;2.65;;;;;;;22.06;46.60;100765.40;1659558;86;20913;-79
2021/09/19 08:55:22;;;;;;;12.37;3.42;;;;;;;22.10;46.43;100757.45;1656997;86;20926;-78
2021/09/19 08:57:49;;;;;;;4.03;2.22;;;;;;;22.07;46.61;100754.33;1651098;86;21123;-75
2021/09/19 09:00:16;;;;;;;3.75;3.05;;;;;;;22.11;45.53;100747.72;1660410;86;21176;-78
2021/09/19 09:02:49;;;;;;;27.15;9.85;;;;;;;22.15;44.85;100755.59;1658515;86;20947;-85
2021/09/19 09:05:29;;;;;;;3.37;2.80;;;;;;;22.17;44.96;100750.16;1655302;86;20941;-78
2021/09/19 09:07:59;;;;;;;5.75;5.12;;;;;;;22.24;44.75;100753.75;1657119;86;21096;-74
2021/09/19 09:10:37;;;;;;;4.62;4.03;;;;;;;22.29;45.02;100752.22;1659374;86;20977;-79
2021/09/19 09:13:13;;;;;;;16.48;8.45;;;;;;;22.44;44.28;100743.03;1658629;86;21154;-75
2021/09/19 09:15:43;;;;;;;3.65;2.30;;;;;;;22.54;44.04;100741.81;1659874;86;21041;-76
2021/09/19 09:18:38;;;;;;;9.20;6.97;;;;;;;22.63;43.57;100742.56;1657803;85;21116;-77
2021/09/19 09:21:21;;;;;;;13.15;8.30;;;;;;;22.70;43.73;100736.92;1657662;84;20965;-75
2021/09/19 09:23:54;;;;;;;10.55;5.85;;;;;;;22.79;41.17;100746.44;1659778;85;21105;-85
2021/09/19 09:26:26;;;;;;;11.48;5.67;;;;;;;22.88;39.83;100732.66;1650580;86;21157;-81
2021/09/19 09:28:58;;;;;;;6.47;3.47;;;;;;;22.96;40.10;100747.12;1659056;85;20925;-77
2021/09/19 09:31:31;;;;;;;;;;;;;;;22.98;40.08;100727.41;1660480;85;20870;-75
2021/09/19 09:34:03;;;;;;;12.70;9.13;;;;;;;23.05;39.13;100726.19;1657969;86;20155;-81
2021/09/19 09:36:39;;;;;;;10.00;7.83;;;;;;;23.12;39.26;100735.06;1661508;86;21528;-81
2021/09/19 09:39:38;;;;;;;14.00;5.30;;;;;;;23.46;39.83;100749.13;1622322;88;21202;-80
2021/09/19 09:42:10;;;;;;;12.70;6.65;;;;;;;24.41;37.31;100748.08;1644983;86;21020;-79
2021/09/19 09:44:46;;;;;;;8.20;5.90;;;;;;;25.31;35.65;100728.33;1661695;86;21096;-78
2021/09/19 09:47:19;;;;;;;12.95;10.10;;;;;;;25.98;35.07;100736.46;1654425;86;21147;-77
2021/09/19 09:49:50;;;;;;;10.60;7.83;;;;;;;26.29;34.32;100744.77;1659565;84;21098;-79
2021/09/19 09:52:33;;;;;;;3.42;2.92;;;;;;;26.68;33.80;100733.36;1659465;86;21155;-77
2021/09/19 09:55:10;;;;;;;;;;;;;;;27.15;33.76;100723.55;1649335;85;21541;-78
2021/09/19 09:57:51;;;;;;;9.83;4.78;;;;;;;27.61;32.79;100716.78;1660719;85;20128;-84
2021/09/19 10:00:21;;;;;;;3.33;2.65;;;;;;;27.92;32.50;100710.72;1659952;86;21002;-84
2021/09/19 10:02:49;;;;;;;2.30;2.10;;;;;;;28.30;33.38;100716.89;1657830;86;21130;-77
2021/09/19 10:05:17;;;;;;;2.08;1.80;;;;;;;28.63;33.47;100712.12;1659869;86;21117;-76
2021/09/19 10:07:44;;;;;;;1.98;1.77;;;;;;;29.34;31.77;100719.23;1656804;86;21448;-75
2021/09/19 10:10:18;;;;;;;2.60;2.35;;;;;;;29.68;30.39;100715.63;1653872;86;21044;-77
2021/09/19 10:12:47;;;;;;;10.50;4.70;;;;;;;29.43;30.86;100722.41;1659694;86;21606;-79
2021/09/19 10:15:16;;;;;;;9.13;6.45;;;;;;;29.43;30.22;100730.44;1658486;85;21469;-79
2021/09/19 10:17:43;;;;;;;8.53;7.60;;;;;;;29.62;30.03;100729.39;1659847;86;21166;-77
2021/09/19 10:20:19;;;;;;;3.55;2.70;;;;;;;29.75;29.78;100717.20;1659154;86;20941;-80
2021/09/19 10:23:09;;;;;;;10.75;6.78;;;;;;;29.76;28.90;100706.80;1658100;85;21000;-81
2021/09/19 10:25:42;;;;;;;5.55;4.08;;;;;;;29.81;29.54;100710.95;1655322;86;21080;-76
2021/09/19 10:28:19;;;;;;;3.90;3.30;;;;;;;29.97;28.71;100708.70;1651194;86;20964;-77
2021/09/19 10:31:20;;;;;;;6.10;2.87;;;;;;;29.43;30.16;100716.24;1659696;85;21138;-82
2021/09/19 10:34:03;;;;;;;6.80;5.65;;;;;;;28.80;30.96;100717.77;1657129;85;20988;-81
2021/09/19 10:36:39;;;;;;;5.87;2.92;;;;;;;28.34;31.46;100720.23;1655727;86;20934;-82
2021/09/19 10:39:31;;;;;;;7.72;4.22;;;;;;;28.05;32.39;100703.98;1658249;86;20941;-81
2021/09/19 10:42:30;;;;;;;2.12;1.95;;;;;;;28.24;32.22;100709.21;1658986;86;21037;-78
2021/09/19 10:45:01;;;;;;;1.72;1.62;;;;;;;28.21;31.60;100713.64;1653225;86;21837;-80
2021/09/19 10:47:47;;;;;;;2.53;1.60;;;;;;;27.68;32.04;100696.25;1657760;85;21053;-81
2021/09/19 10:50:25;;;;;;;7.50;3.30;;;;;;;27.61;32.90;100700.78;1643712;86;21184;-79
2021/09/19 10:53:03;;;;;;;4.72;3.30;;;;;;;27.67;32.10;100693.27;1648833;86;20972;-80
2021/09/19 10:55:39;;;;;;;9.28;8.33;;;;;;;27.28;32.66;100695.02;1659668;86;20973;-75
2021/09/19 10:58:13;;;;;;;11.30;6.60;;;;;;;26.87;32.61;100700.34;1659618;86;21083;-81
2021/09/19 11:00:43;;;;;;;6.03;5.40;;;;;;;26.64;34.10;100693.55;1657815;86;20941;-85
2021/09/19 11:03:14;;;;;;;;;;;;;;;26.67;33.78;100704.30;1661412;86;21520;-81
2021/09/19 11:05:47;;;;;;;;;;;;;;;26.69;33.76;100689.75;1657786;86;20082;-76
2021/09/19 11:08:21;;;;;;;;;;;;;;;26.83;33.45;100695.93;1657969;86;20098;-80
2021/09/19 11:10:55;;;;;;;;;;;;;;;26.64;32.73;100698.88;1660081;85;20946;-75
2021/09/19 11:13:24;;;;;;;;;;;;;;;26.53;33.30;100687.49;1660525;86;20126;-80
2021/09/19 11:16:08;;;;;;;;;;;;;;;26.39;33.59;100693.81;1662419;86;20138;-76
2021/09/19 11:18:41;;;;;;;;;;;;;;;26.17;34.37;100691.02;1662335;86;20122;-74
2021/09/19 11:21:17;;;;;;;;;;;;;;;26.13;34.01;100686.58;1660859;86;20431;-80
2021/09/19 11:23:47;;;;;;;;;;;;;;;26.10;34.23;100688.84;1661708;86;20589;-79
2021/09/19 11:26:19;;;;;;;;;;;;;;;26.47;34.15;100679.00;1658953;86;20463;-76
2021/09/19 11:28:50;;;;;;;;;;;;;;;26.85;34.04;100671.23;1660556;86;20137;-77
2021/09/19 11:31:18;;;;;;;;;;;;;;;26.78;33.77;100672.53;1659323;86;20435;-73
2021/09/19 11:33:46;;;;;;;;;;;;;;;26.45;33.34;100690.37;1658325;86;20081;-79